Time;durP1;ratioP1;P1;durP2;ratioP2;P2;SDS_P1;SDS_P2;PMS_P1;PMS_P2;Temp;Humidity;BMP_temperature;BMP_pressure;BME280_temperature;BME280_humidity;BME280_pressure;Samples;Min_cycle;Max_cycle;Signal;HPM_P1;HPM_P2
2022/03/16 00:02:19;;;;;;;12.80;6.40;;;4.30;83.00;;;;;;5071478;28;20537;-63
2022/03/16 00:04:47;;;;;;;10.90;6.53;;;4.30;83.00;;;;;;5071327;28;20506;-62
2022/03/16 00:07:13;;;;;;;10.43;6.63;;;4.20;85.20;;;;;;5070662;28;20535;-63
2022/03/16 00:09:40;;;;;;;12.17;7.23;;;4.20;88.90;;;;;;5072118;28;20477;-61
2022/03/16 00:12:07;;;;;;;12.30;6.87;;;4.20;88.80;;;;;;5071689;28;20446;-63
2022/03/16 00:14:36;;;;;;;11.83;7.47;;;4.10;90.60;;;;;;5071621;28;20493;-62
2022/03/16 00:17:02;;;;;;;12.40;6.53;;;4.20;91.00;;;;;;5070980;28;20451;-63
2022/03/16 00:19:29;;;;;;;11.00;6.67;;;4.20;90.60;;;;;;5070901;28;20454;-64
2022/03/16 00:21:57;;;;;;;16.20;6.80;;;4.10;90.70;;;;;;5071499;28;20439;-62
2022/03/16 00:24:24;;;;;;;12.07;7.20;;;4.20;90.50;;;;;;5071158;28;20864;-63
2022/03/16 00:26:50;;;;;;;10.00;6.87;;;4.10;90.10;;;;;;5070841;28;20447;-63
2022/03/16 00:29:17;;;;;;;9.60;6.33;;;4.10;90.10;;;;;;5071008;28;20813;-64
2022/03/16 00:31:45;;;;;;;9.50;6.13;;;4.10;87.90;;;;;;5071087;28;20937;-63
2022/03/16 00:34:12;;;;;;;10.47;6.87;;;4.10;87.30;;;;;;5072635;28;20464;-63
2022/03/16 00:36:39;;;;;;;13.73;7.17;;;4.10;84.80;;;;;;5074440;28;20504;-63
2022/03/16 00:39:06;;;;;;;13.97;8.17;;;4.00;81.30;;;;;;5074919;28;20505;-63
2022/03/16 00:41:33;;;;;;;14.80;8.10;;;4.00;80.50;;;;;;5074313;28;20509;-63
2022/03/16 00:44:00;;;;;;;13.23;8.27;;;4.00;80.20;;;;;;5074306;28;20929;-63
2022/03/16 00:46:27;;;;;;;14.37;8.60;;;3.90;79.60;;;;;;5074241;28;20456;-63
2022/03/16 00:48:55;;;;;;;14.43;8.97;;;3.90;81.40;;;;;;5073939;28;20944;-63
2022/03/16 00:51:22;;;;;;;14.30;8.30;;;3.90;81.90;;;;;;5074517;28;20497;-63
2022/03/16 00:53:49;;;;;;;14.77;8.57;;;3.90;84.40;;;;;;5074352;28;20502;-62
2022/03/16 00:56:16;;;;;;;14.27;8.60;;;3.80;89.20;;;;;;5074406;28;20451;-63
2022/03/16 00:58:42;;;;;;;12.73;7.60;;;3.70;90.50;;;;;;5074343;28;20450;-63
2022/03/16 01:01:09;;;;;;;13.30;8.03;;;3.70;94.10;;;;;;5074108;28;20945;-63
2022/03/16 01:03:40;;;;;;;13.67;8.17;;;3.70;96.30;;;;;;5074153;28;20842;-64
2022/03/16 01:06:12;;;;;;;14.20;7.90;;;3.70;97.80;;;;;;5073946;28;20457;-64
2022/03/16 01:08:39;;;;;;;13.00;7.13;;;3.70;99.50;;;;;;5074368;28;20455;-63
2022/03/16 01:11:06;;;;;;;9.90;7.37;;;3.80;99.90;;;;;;5074017;28;20450;-63
2022/03/16 01:13:32;;;;;;;11.63;7.27;;;3.80;99.90;;;;;;5074011;28;20443;-64
2022/03/16 01:15:59;;;;;;;13.07;7.37;;;3.80;99.90;;;;;;5073392;28;20470;-64
2022/03/16 01:18:26;;;;;;;13.73;7.43;;;3.80;99.90;;;;;;5073761;28;20950;-62
2022/03/16 01:20:52;;;;;;;13.90;7.37;;;3.80;99.90;;;;;;5073996;28;20455;-63
2022/03/16 01:23:20;;;;;;;11.97;7.90;;;3.90;99.90;;;;;;5073692;28;20487;-64
2022/03/16 01:25:47;;;;;;;13.97;7.70;;;3.90;99.90;;;;;;5074132;28;20447;-62
2022/03/16 01:28:13;;;;;;;11.33;7.30;;;3.80;99.90;;;;;;5073327;28;20448;-62
2022/03/16 01:30:43;;;;;;;15.17;8.03;;;3.80;99.90;;;;;;5073680;28;20447;-62
2022/03/16 01:33:10;;;;;;;10.73;7.30;;;3.80;99.90;;;;;;5073692;28;20858;-63
2022/03/16 01:35:36;;;;;;;15.70;8.03;;;3.70;99.90;;;;;;5073514;28;20468;-62
2022/03/16 01:38:03;;;;;;;12.37;7.33;;;3.70;99.90;;;;;;5073170;28;20481;-63
2022/03/16 01:40:31;;;;;;;13.07;8.43;;;3.70;99.90;;;;;;5073424;28;20528;-63
2022/03/16 01:42:58;;;;;;;16.20;8.33;;;3.60;99.90;;;;;;5073040;28;20488;-63
2022/03/16 01:45:24;;;;;;;15.33;8.47;;;3.50;99.90;;;;;;5072585;28;20471;-62
2022/03/16 01:47:51;;;;;;;12.83;8.27;;;3.50;99.90;;;;;;5072750;28;20470;-62
2022/03/16 01:50:18;;;;;;;11.10;7.87;;;3.50;99.90;;;;;;5073380;28;20512;-63
2022/03/16 01:52:45;;;;;;;12.70;7.97;;;3.50;99.90;;;;;;5073237;28;20451;-60
2022/03/16 01:55:12;;;;;;;12.30;8.30;;;3.50;99.90;;;;;;5073042;28;21011;-63
2022/03/16 01:57:43;;;;;;;13.50;7.87;;;3.60;99.90;;;;;;5072390;28;20536;-64
2022/03/16 02:00:10;;;;;;;10.93;8.03;;;3.60;99.90;;;;;;5073434;28;20683;-63
2022/03/16 02:02:37;;;;;;;10.40;7.13;;;3.60;99.90;;;;;;5073215;28;20512;-63
2022/03/16 02:05:04;;;;;;;13.77;7.70;;;3.60;99.90;;;;;;5072883;28;21011;-64
2022/03/16 02:07:31;;;;;;;14.03;7.87;;;3.70;99.90;;;;;;5072697;28;20450;-63
2022/03/16 02:10:01;;;;;;;14.73;7.77;;;3.60;99.90;;;;;;5072806;28;20439;-63
2022/03/16 02:12:28;;;;;;;13.30;7.63;;;3.60;99.90;;;;;;5073260;28;20459;-63
2022/03/16 02:14:56;;;;;;;12.20;8.17;;;3.50;99.90;;;;;;5073051;28;20524;-63
2022/03/16 02:17:22;;;;;;;14.27;8.83;;;3.50;99.90;;;;;;5072553;28;20863;-63
2022/03/16 02:19:49;;;;;;;12.50;9.27;;;3.40;99.90;;;;;;5072195;28;20496;-61
2022/03/16 02:22:18;;;;;;;12.90;8.77;;;3.30;99.90;;;;;;5072653;28;20454;-62
2022/03/16 02:24:46;;;;;;;13.20;8.80;;;3.30;99.90;;;;;;5072379;28;20491;-62
2022/03/16 02:27:13;;;;;;;12.40;8.07;;;3.20;99.90;;;;;;5072301;28;20481;-61
2022/03/16 02:29:40;;;;;;;12.93;8.60;;;3.10;99.90;;;;;;5072685;28;20478;-62
2022/03/16 02:32:07;;;;;;;14.20;8.57;;;3.10;99.90;;;;;;5072424;28;20454;-62
2022/03/16 02:34:34;;;;;;;16.83;8.63;;;3.10;99.90;;;;;;5072134;28;20525;-62
2022/03/16 02:37:00;;;;;;;15.23;9.10;;;3.00;99.90;;;;;;5072072;28;20443;-63
2022/03/16 02:39:27;;;;;;;13.87;8.30;;;2.90;99.90;;;;;;5071987;28;20523;-63
2022/03/16 02:41:55;;;;;;;16.07;9.20;;;2.80;99.90;;;;;;5071967;28;20489;-62
2022/03/16 02:44:22;;;;;;;15.87;9.57;;;2.80;99.90;;;;;;5072090;28;20512;-62
2022/03/16 02:46:49;;;;;;;15.40;9.27;;;2.70;99.90;;;;;;5072099;28;20867;-64
2022/03/16 02:49:16;;;;;;;13.27;8.60;;;2.80;99.90;;;;;;5072165;28;20469;-63
2022/03/16 02:51:43;;;;;;;16.07;9.13;;;2.90;99.90;;;;;;5072022;28;20560;-63
2022/03/16 02:54:10;;;;;;;13.40;8.87;;;2.90;99.90;;;;;;5072211;28;20477;-62
2022/03/16 02:56:36;;;;;;;17.83;8.97;;;2.90;99.90;;;;;;5071618;28;20451;-63
2022/03/16 02:59:04;;;;;;;14.63;9.30;;;2.80;99.90;;;;;;5072355;28;20528;-63
2022/03/16 03:01:31;;;;;;;11.93;8.03;;;2.80;99.90;;;;;;5072200;28;20815;-63
2022/03/16 03:03:58;;;;;;;12.67;8.83;;;2.90;99.90;;;;;;5071696;28;20491;-64
2022/03/16 03:06:24;;;;;;;13.07;7.87;;;3.00;99.90;;;;;;5071482;28;20505;-63
2022/03/16 03:08:51;;;;;;;14.33;8.37;;;2.90;99.90;;;;;;5071649;28;20979;-64
2022/03/16 03:11:18;;;;;;;12.13;7.77;;;2.90;99.90;;;;;;5072054;28;20443;-64
2022/03/16 03:13:45;;;;;;;15.93;7.70;;;2.90;99.90;;;;;;5071920;28;20467;-63
2022/03/16 03:16:13;;;;;;;11.50;7.20;;;3.00;99.90;;;;;;5071621;28;20455;-63
2022/03/16 03:18:39;;;;;;;13.73;8.20;;;3.00;99.90;;;;;;5072193;28;20484;-63
2022/03/16 03:21:06;;;;;;;13.10;8.33;;;3.10;99.90;;;;;;5071677;28;20450;-63
2022/03/16 03:23:33;;;;;;;14.50;7.53;;;3.20;99.90;;;;;;5072146;28;20483;-64
2022/03/16 03:25:59;;;;;;;16.77;8.27;;;3.30;99.90;;;;;;5071415;28;20459;-63
2022/03/16 03:28:26;;;;;;;12.17;8.27;;;3.20;99.90;;;;;;5072059;28;20933;-63
2022/03/16 03:30:53;;;;;;;14.63;8.40;;;3.20;99.90;;;;;;5072323;28;20462;-62
2022/03/16 03:33:21;;;;;;;14.10;8.17;;;3.30;99.90;;;;;;5072023;28;20496;-63
2022/03/16 03:35:48;;;;;;;13.53;7.37;;;3.30;99.90;;;;;;5072135;28;20459;-62
2022/03/16 03:38:16;;;;;;;13.07;7.70;;;3.30;99.90;;;;;;5071502;28;20452;-63
2022/03/16 03:40:42;;;;;;;12.83;7.57;;;3.30;99.90;;;;;;5071699;28;20450;-63
2022/03/16 03:43:09;;;;;;;15.30;7.77;;;3.40;99.90;;;;;;5071424;28;20446;-62
2022/03/16 03:45:35;;;;;;;14.67;8.47;;;3.40;99.90;;;;;;5071456;28;20475;-62
2022/03/16 03:48:02;;;;;;;12.93;8.07;;;3.40;99.90;;;;;;5070841;28;20462;-63
2022/03/16 03:50:30;;;;;;;14.80;8.90;;;3.40;99.90;;;;;;5071440;28;20451;-64
2022/03/16 03:52:57;;;;;;;16.03;8.73;;;3.40;99.90;;;;;;5071477;28;21018;-63
2022/03/16 03:55:23;;;;;;;14.60;8.63;;;3.50;99.90;;;;;;5071431;28;20471;-62
2022/03/16 03:57:50;;;;;;;14.23;8.70;;;3.50;99.90;;;;;;5071162;28;20874;-63
2022/03/16 04:00:17;;;;;;;17.63;9.60;;;3.50;99.90;;;;;;5071463;28;20967;-63
2022/03/16 04:02:48;;;;;;;14.33;8.63;;;3.50;99.90;;;;;;5071198;28;20511;-63
2022/03/16 04:05:15;;;;;;;20.30;9.90;;;3.50;99.90;;;;;;5071460;28;20525;-63
2022/03/16 04:07:43;;;;;;;17.40;9.37;;;3.50;99.90;;;;;;5070921;28;20501;-63
2022/03/16 04:10:11;;;;;;;16.03;9.23;;;3.50;99.90;;;;;;5074544;28;20935;-63
2022/03/16 04:12:37;;;;;;;16.10;8.77;;;3.50;99.90;;;;;;5075267;28;21131;-63
2022/03/16 04:15:05;;;;;;;15.80;9.00;;;3.50;99.90;;;;;;5074738;28;20504;-63
2022/03/16 04:17:32;;;;;;;14.03;8.27;;;3.50;99.90;;;;;;5075031;28;20467;-63
2022/03/16 04:19:58;;;;;;;13.13;7.97;;;3.50;99.90;;;;;;5074987;28;20466;-64
2022/03/16 04:22:27;;;;;;;16.13;8.87;;;3.50;99.90;;;;;;5074943;28;20447;-64
2022/03/16 04:24:56;;;;;;;19.33;8.83;;;3.50;99.90;;;;;;5074750;28;20608;-62
2022/03/16 04:27:24;;;;;;;18.50;9.00;;;3.50;99.90;;;;;;5074495;28;20447;-63
2022/03/16 04:29:51;;;;;;;18.37;8.87;;;3.50;99.90;;;;;;5074714;28;20446;-63
2022/03/16 04:32:17;;;;;;;16.83;9.27;;;3.50;99.90;;;;;;5074823;28;20515;-64
2022/03/16 04:34:44;;;;;;;17.90;9.47;;;3.50;99.90;;;;;;5074840;28;20498;-62
2022/03/16 04:37:11;;;;;;;16.63;8.97;;;3.50;99.90;;;;;;5074236;28;20454;-63
2022/03/16 04:39:38;;;;;;;16.33;8.87;;;3.50;99.90;;;;;;5074604;28;20536;-63
2022/03/16 04:42:07;;;;;;;12.23;8.07;;;3.50;99.90;;;;;;5074519;28;20948;-63
2022/03/16 04:44:34;;;;;;;19.53;9.20;;;3.50;99.90;;;;;;5074544;28;20487;-63
2022/03/16 04:47:00;;;;;;;14.33;9.33;;;3.50;99.90;;;;;;5074251;28;20505;-63
2022/03/16 04:49:27;;;;;;;14.10;8.47;;;3.40;99.90;;;;;;5074273;28;20485;-63
2022/03/16 04:51:53;;;;;;;15.20;8.47;;;3.50;99.90;;;;;;5074554;28;20450;-63
2022/03/16 04:54:20;;;;;;;13.90;8.77;;;3.50;99.90;;;;;;5074198;28;21016;-63
2022/03/16 04:56:47;;;;;;;16.43;9.13;;;3.50;99.90;;;;;;5073658;28;20443;-62
2022/03/16 04:59:15;;;;;;;13.77;8.80;;;3.40;99.90;;;;;;5074472;28;20512;-63
2022/03/16 05:01:42;;;;;;;15.30;8.37;;;3.40;99.90;;;;;;5074346;28;20545;-63
2022/03/16 05:04:09;;;;;;;14.60;8.80;;;3.40;99.90;;;;;;5074159;28;20505;-62
2022/03/16 05:06:35;;;;;;;14.33;8.80;;;3.40;99.90;;;;;;5073779;28;20512;-62
2022/03/16 05:09:02;;;;;;;16.73;8.60;;;3.30;99.90;;;;;;5073993;28;20991;-63
2022/03/16 05:11:29;;;;;;;14.00;8.50;;;3.30;99.90;;;;;;5073975;28;20450;-61
2022/03/16 05:13:56;;;;;;;14.50;8.53;;;3.20;99.90;;;;;;5074066;28;20482;-62
2022/03/16 05:16:24;;;;;;;14.93;9.03;;;3.10;99.90;;;;;;5073613;28;20533;-62
2022/03/16 05:18:51;;;;;;;17.77;8.37;;;3.10;99.90;;;;;;5073833;28;20479;-63
2022/03/16 05:21:18;;;;;;;14.37;7.97;;;3.00;99.90;;;;;;5073782;28;20504;-61
2022/03/16 05:23:44;;;;;;;11.10;7.57;;;3.00;99.90;;;;;;5073510;28;20474;-61
2022/03/16 05:26:12;;;;;;;13.43;8.13;;;3.00;99.90;;;;;;5073522;28;20524;-61
2022/03/16 05:28:39;;;;;;;11.80;7.80;;;3.00;99.90;;;;;;5073985;28;20447;-61
2022/03/16 05:31:05;;;;;;;13.93;7.90;;;3.00;99.90;;;;;;5073593;28;20458;-61
2022/03/16 05:33:33;;;;;;;15.17;8.53;;;3.00;99.90;;;;;;5073711;28;20482;-60
2022/03/16 05:36:00;;;;;;;14.93;8.97;;;3.00;99.90;;;;;;5073248;28;20461;-60
2022/03/16 05:38:27;;;;;;;14.20;8.53;;;3.00;99.90;;;;;;5073891;28;20508;-62
2022/03/16 05:40:53;;;;;;;13.33;8.77;;;3.10;99.90;;;;;;5074391;28;20447;-61
2022/03/16 05:43:21;;;;;;;13.87;8.90;;;3.10;99.90;;;;;;5071095;28;20505;-62
2022/03/16 05:45:49;;;;;;;14.43;8.73;;;3.10;99.90;;;;;;5072928;28;20488;-61
2022/03/16 05:48:16;;;;;;;14.23;8.57;;;3.20;99.90;;;;;;5072762;28;20544;-62
2022/03/16 05:50:46;;;;;;;14.73;8.17;;;3.20;99.90;;;;;;5073282;28;20444;-62
2022/03/16 05:53:13;;;;;;;16.03;8.23;;;3.20;99.90;;;;;;5073170;28;20757;-62
2022/03/16 05:55:40;;;;;;;14.57;8.87;;;3.30;99.90;;;;;;5072660;28;20521;-62
2022/03/16 05:58:06;;;;;;;14.80;8.30;;;3.30;99.90;;;;;;5073061;28;20862;-61
2022/03/16 06:00:33;;;;;;;13.97;8.27;;;3.30;99.90;;;;;;5072873;28;20447;-62
2022/03/16 06:02:59;;;;;;;16.07;8.80;;;3.30;99.90;;;;;;5072936;28;20459;-62
2022/03/16 06:05:26;;;;;;;14.80;9.03;;;3.40;99.90;;;;;;5072503;28;20499;-61
2022/03/16 06:07:54;;;;;;;17.47;9.13;;;3.40;99.90;;;;;;5072583;28;20494;-62
2022/03/16 06:10:21;;;;;;;15.93;9.70;;;3.40;99.90;;;;;;5073028;28;20540;-62
2022/03/16 06:12:52;;;;;;;14.77;8.67;;;3.40;99.90;;;;;;5072626;28;20489;-62
2022/03/16 06:15:20;;;;;;;17.40;8.50;;;3.50;99.90;;;;;;5072732;28;20475;-62
2022/03/16 06:17:46;;;;;;;14.30;8.43;;;3.50;99.90;;;;;;5072081;28;20451;-63
2022/03/16 06:20:13;;;;;;;17.17;8.53;;;3.50;99.90;;;;;;5066150;28;20459;-63
2022/03/16 06:22:40;;;;;;;16.40;9.30;;;3.60;99.90;;;;;;5072151;28;20484;-63
2022/03/16 06:25:09;;;;;;;14.47;8.43;;;3.60;99.90;;;;;;5071562;28;20483;-64
2022/03/16 06:27:35;;;;;;;16.40;8.70;;;3.60;99.90;;;;;;5072070;28;20447;-65
2022/03/16 06:30:02;;;;;;;16.57;8.73;;;3.60;99.90;;;;;;5071970;28;20998;-64
2022/03/16 06:32:29;;;;;;;15.00;8.90;;;3.70;99.90;;;;;;5071234;28;20835;-64
2022/03/16 06:34:56;;;;;;;17.60;8.83;;;3.70;99.90;;;;;;5071994;28;20499;-63
2022/03/16 06:37:22;;;;;;;16.20;9.43;;;3.70;99.90;;;;;;5071607;28;20450;-64
2022/03/16 06:39:49;;;;;;;17.53;8.80;;;3.80;99.90;;;;;;5071757;28;20463;-62
2022/03/16 06:42:17;;;;;;;14.23;8.87;;;3.80;99.90;;;;;;5071799;28;20440;-63
2022/03/16 06:44:44;;;;;;;16.33;8.93;;;3.90;99.90;;;;;;5071274;28;20498;-64
2022/03/16 06:47:10;;;;;;;16.90;9.03;;;4.00;99.90;;;;;;5071640;28;20497;-62
2022/03/16 06:49:37;;;;;;;15.50;9.53;;;4.10;99.90;;;;;;5071115;28;20466;-63
2022/03/16 06:52:05;;;;;;;15.20;9.57;;;4.20;99.90;;;;;;5071583;28;20458;-64
2022/03/16 06:54:32;;;;;;;15.07;9.10;;;4.30;99.90;;;;;;5071809;28;20489;-62
2022/03/16 06:56:58;;;;;;;15.80;9.60;;;4.40;98.30;;;;;;5071172;28;20456;-63
2022/03/16 06:59:26;;;;;;;14.60;8.60;;;4.40;96.40;;;;;;5072083;28;20448;-62
2022/03/16 07:01:53;;;;;;;15.43;9.23;;;4.40;95.00;;;;;;5070645;28;20454;-62
2022/03/16 07:04:20;;;;;;;13.90;8.70;;;4.40;93.40;;;;;;5071705;28;20521;-62
2022/03/16 07:06:46;;;;;;;14.27;8.23;;;4.40;92.70;;;;;;5071558;28;20449;-62
2022/03/16 07:09:13;;;;;;;18.20;9.67;;;4.30;93.10;;;;;;5071270;28;20501;-62
2022/03/16 07:11:40;;;;;;;17.97;10.20;;;4.30;93.20;;;;;;5071674;28;20477;-62
2022/03/16 07:16:52;;;;;;;15.33;8.70;;;4.30;89.40;;;;;;5071179;28;21117;-63
2022/03/16 07:19:19;;;;;;;16.77;10.37;;;4.30;84.90;;;;;;5071577;28;20455;-63
2022/03/16 07:21:45;;;;;;;17.10;8.97;;;4.40;77.50;;;;;;5070661;28;20458;-64
2022/03/16 07:24:12;;;;;;;14.00;8.77;;;4.50;63.90;;;;;;5071131;28;20471;-63
2022/03/16 07:26:39;;;;;;;13.93;9.40;;;4.60;60.00;;;;;;5070674;28;20439;-64
2022/03/16 07:29:06;;;;;;;18.47;8.83;;;4.70;48.70;;;;;;5071372;28;20542;-64
2022/03/16 07:31:33;;;;;;;13.70;9.10;;;4.80;38.00;;;;;;5070996;28;20443;-64
2022/03/16 07:34:01;;;;;;;15.30;9.57;;;5.00;51.20;;;;;;5071288;28;20565;-64
2022/03/16 07:36:28;;;;;;;15.47;9.13;;;5.40;36.30;;;;;;5071186;28;21036;-62
2022/03/16 07:38:54;;;;;;;14.07;8.43;;;5.70;1.00;;;;;;5071023;28;20554;-63
2022/03/16 07:41:21;;;;;;;17.17;9.40;;;5.90;1.00;;;;;;5070998;28;20279;-64
2022/03/16 07:43:48;;;;;;;13.30;8.17;;;6.20;1.00;;;;;;5072843;28;20227;-63
2022/03/16 07:46:14;;;;;;;17.07;9.07;;;6.10;1.00;;;;;;5075621;28;20226;-62
2022/03/16 07:48:43;;;;;;;14.40;8.87;;;6.00;1.00;;;;;;5075183;28;20217;-63
2022/03/16 07:51:11;;;;;;;15.87;10.00;;;6.10;1.00;;;;;;5075770;28;20209;-63
2022/03/16 07:53:38;;;;;;;19.13;10.70;;;6.20;1.00;;;;;;5075215;28;20233;-64
2022/03/16 07:56:05;;;;;;;14.90;9.67;;;6.30;1.00;;;;;;5075204;28;20202;-62
2022/03/16 07:58:32;;;;;;;14.03;9.10;;;6.40;1.00;;;;;;5075366;28;20809;-64
2022/03/16 08:00:58;;;;;;;14.83;8.90;;;6.60;1.00;;;;;;5075588;28;20623;-64
2022/03/16 08:03:26;;;;;;;13.67;8.73;;;6.70;99.90;;;;;;5075056;28;20261;-62
2022/03/16 08:05:53;;;;;;;13.47;9.07;;;6.70;99.90;;;;;;5074582;28;20259;-62
2022/03/16 08:08:21;;;;;;;12.73;8.70;;;6.80;99.90;;;;;;5074719;28;20203;-64
2022/03/16 08:10:48;;;;;;;12.87;8.87;;;7.00;99.90;;;;;;5074152;28;20208;-63
2022/03/16 08:13:14;;;;;;;16.63;9.50;;;7.20;99.90;;;;;;5075128;28;20258;-64
2022/03/16 08:15:42;;;;;;;15.53;8.33;;;7.30;1.00;;;;;;5074597;28;20286;-64
2022/03/16 08:18:09;;;;;;;12.60;8.07;;;7.50;5.80;;;;;;5074303;28;20205;-64
2022/03/16 08:20:35;;;;;;;12.37;8.23;;;7.70;1.00;;;;;;5074422;28;20212;-63
2022/03/16 08:23:02;;;;;;;15.20;8.13;;;7.80;1.00;;;;;;5073921;28;20769;-63
2022/03/16 08:25:30;;;;;;;12.20;8.07;;;8.00;1.00;;;;;;5074725;28;20261;-64
2022/03/16 08:27:58;;;;;;;14.23;7.83;;;8.10;1.00;;;;;;5074006;28;20209;-63
2022/03/16 08:30:25;;;;;;;11.27;7.40;;;8.20;1.00;;;;;;5073980;28;20201;-63
2022/03/16 08:32:52;;;;;;;14.40;7.93;;;8.40;50.30;;;;;;5074350;28;20593;-64
2022/03/16 08:35:20;;;;;;;14.63;8.17;;;8.60;1.00;;;;;;5073912;28;20714;-65
2022/03/16 08:37:46;;;;;;;12.03;7.43;;;8.70;1.00;;;;;;5073627;28;20659;-63
2022/03/16 08:40:15;;;;;;;13.10;8.07;;;8.90;99.90;;;;;;5074153;28;20207;-64
2022/03/16 08:42:43;;;;;;;13.47;8.00;;;9.00;12.80;;;;;;5074031;28;20212;-63
2022/03/16 08:45:10;;;;;;;14.00;8.50;;;9.00;1.00;;;;;;5073632;28;20234;-64
2022/03/16 08:47:37;;;;;;;12.57;8.07;;;9.20;99.90;;;;;;5073110;28;20219;-68
2022/03/16 08:50:06;;;;;;;11.90;7.53;;;9.20;99.90;;;;;;5073857;28;20222;-64
2022/03/16 08:52:33;;;;;;;15.03;8.30;;;9.50;1.00;;;;;;5074409;28;20218;-65
2022/03/16 08:55:00;;;;;;;15.20;8.37;;;9.50;1.00;;;;;;5073056;28;20234;-66
2022/03/16 08:57:28;;;;;;;13.50;8.67;;;9.60;99.90;;;;;;5073624;28;20302;-65
2022/03/16 08:59:56;;;;;;;14.43;8.67;;;9.80;1.00;;;;;;5073184;28;20208;-67
2022/03/16 09:02:23;;;;;;;13.37;8.27;;;9.90;99.90;;;;;;5073070;28;20224;-64
2022/03/16 09:04:50;;;;;;;13.33;7.90;;;10.10;99.90;;;;;;5073442;28;20231;-64
2022/03/16 09:07:17;;;;;;;11.27;7.37;;;10.10;58.50;;;;;;5073600;28;20211;-64
2022/03/16 09:09:44;;;;;;;12.00;7.43;;;10.20;1.00;;;;;;5073977;28;20681;-63
2022/03/16 09:12:12;;;;;;;13.70;7.70;;;10.30;99.90;;;;;;5073047;28;20746;-62
2022/03/16 09:14:39;;;;;;;11.13;7.17;;;10.40;1.00;;;;;;5073385;28;20710;-64
2022/03/16 09:17:10;;;;;;;10.67;7.70;;;10.60;99.90;;;;;;5073714;28;20211;-64
2022/03/16 09:19:37;;;;;;;13.83;7.67;;;10.70;96.40;;;;;;5072976;28;20207;-64
2022/03/16 09:22:04;;;;;;;11.00;6.60;;;10.70;6.20;;;;;;5073147;28;20242;-63
2022/03/16 09:24:32;;;;;;;9.40;6.40;;;10.80;99.90;;;;;;5072663;28;20293;-65
2022/03/16 09:26:59;;;;;;;9.43;7.20;;;10.80;99.90;;;;;;5072310;28;20229;-65
2022/03/16 09:29:28;;;;;;;11.87;7.43;;;10.90;99.90;;;;;;5072937;28;20675;-64
2022/03/16 09:31:55;;;;;;;13.17;7.30;;;10.90;99.90;;;;;;5072914;28;20621;-64
2022/03/16 09:34:23;;;;;;;11.67;7.73;;;11.00;99.90;;;;;;5073199;28;20641;-64
2022/03/16 09:36:50;;;;;;;8.93;6.37;;;11.00;99.90;;;;;;5072271;28;20671;-63
2022/03/16 09:39:17;;;;;;;10.03;7.03;;;10.90;99.90;;;;;;5072878;28;20616;-63
2022/03/16 09:41:44;;;;;;;10.67;6.70;;;10.90;99.90;;;;;;5072610;28;20220;-64
2022/03/16 09:44:11;;;;;;;10.70;6.80;;;11.00;99.90;;;;;;5072688;28;20221;-64
2022/03/16 09:46:39;;;;;;;10.63;6.97;;;11.20;99.90;;;;;;5072818;28;20232;-64
2022/03/16 09:49:07;;;;;;;9.17;6.80;;;11.20;99.90;;;;;;5072366;28;20648;-65
2022/03/16 09:51:36;;;;;;;10.13;6.80;;;11.40;99.90;;;;;;5072785;28;20222;-64
2022/03/16 09:54:03;;;;;;;12.40;6.27;;;11.30;99.90;;;;;;5052694;28;20221;-64
2022/03/16 09:56:30;;;;;;;8.90;6.40;;;11.40;51.50;;;;;;5052373;28;20205;-63
2022/03/16 09:58:57;;;;;;;10.30;6.23;;;11.30;5.00;;;;;;5052467;28;20210;-64
2022/03/16 10:01:24;;;;;;;10.77;7.17;;;11.40;99.90;;;;;;5052264;28;20623;-65
2022/03/16 10:03:52;;;;;;;9.60;6.07;;;11.30;37.90;;;;;;5052619;28;20225;-65
2022/03/16 10:06:23;;;;;;;10.43;6.33;;;11.50;99.90;;;;;;5051129;28;20229;-65
2022/03/16 10:14:15;;;;;;;;;;;11.70;1.00;;;;;;5068641;28;20430;-65
2022/03/16 10:19:48;;;;;;;10.13;7.50;;;12.30;19.40;;;;;;5071692;28;20200;-64
2022/03/16 10:22:22;;;;;;;11.57;7.57;;;12.40;1.00;;;;;;5072452;28;20719;-63
2022/03/16 10:24:54;;;;;;;11.57;7.17;;;12.40;1.00;;;;;;5071771;28;20715;-63
2022/03/16 10:27:21;;;;;;;11.93;7.37;;;12.40;1.00;;;;;;5071741;28;20229;-63
2022/03/16 10:29:50;;;;;;;11.10;7.83;;;12.30;1.00;;;;;;5072166;28;20205;-63
2022/03/16 10:32:20;;;;;;;11.17;7.40;;;12.40;1.00;;;;;;5071437;28;20200;-62
2022/03/16 10:34:52;;;;;;;11.30;7.90;;;12.50;1.00;;;;;;5072159;28;20278;-63
2022/03/16 10:37:20;;;;;;;11.47;7.13;;;12.40;1.00;;;;;;5071474;28;20205;-64
2022/03/16 10:39:48;;;;;;;10.53;7.63;;;12.50;1.00;;;;;;5071730;28;20228;-64
2022/03/16 10:47:59;;;;;;;9.37;7.03;;;12.60;99.90;;;;;;5071331;28;20209;-64
2022/03/16 10:50:26;;;;;;;8.90;6.17;;;12.50;99.90;;;;;;5071295;28;20580;-63
2022/03/16 10:52:55;;;;;;;10.43;7.47;;;12.50;99.90;;;;;;5071688;28;20209;-62
2022/03/16 10:55:22;;;;;;;11.73;6.83;;;12.50;99.90;;;;;;5071664;28;20951;-64
2022/03/16 10:57:51;;;;;;;9.67;6.77;;;12.50;99.90;;;;;;5070715;28;20201;-61
2022/03/16 11:00:18;;;;;;;10.70;6.70;;;12.60;99.90;;;;;;5071547;28;20251;-59
2022/03/16 11:02:47;;;;;;;10.40;6.70;;;12.70;99.90;;;;;;5071178;28;20213;-63
2022/03/16 11:05:18;;;;;;;9.95;7.38;;;12.60;99.90;;;;;;5070175;28;20468;-62
2022/03/16 11:07:47;;;;;;;9.13;7.03;;;12.60;99.90;;;;;;5070526;28;20229;-64
2022/03/16 11:10:14;;;;;;;9.57;7.07;;;12.60;99.90;;;;;;5071192;28;20212;-63
2022/03/16 11:15:28;;;;;;;9.90;6.43;;;12.90;99.90;;;;;;5071148;28;20223;-63
2022/03/16 11:17:55;;;;;;;9.07;6.27;;;13.00;99.90;;;;;;5070724;28;20269;-66
2022/03/16 11:20:21;;;;;;;8.97;6.30;;;13.30;99.90;;;;;;5070749;28;20208;-62
2022/03/16 11:26:04;;;;;;;11.23;8.38;;;13.60;99.90;;;;;;5069731;28;20924;-62
2022/03/16 11:28:39;;;;;;;10.50;6.83;;;13.70;99.90;;;;;;5071034;28;20686;-63
2022/03/16 11:31:14;;;;;;;9.17;6.33;;;13.60;99.90;;;;;;5070860;28;20207;-63
2022/03/16 11:33:50;;;;;;;10.67;6.67;;;13.70;99.90;;;;;;5070880;28;20263;-63
2022/03/16 11:36:30;;;;;;;10.93;7.40;;;13.70;99.90;;;;;;5071040;28;20291;-62
2022/03/16 11:38:58;;;;;;;9.73;7.10;;;13.80;99.90;;;;;;5070357;28;20681;-62
2022/03/16 11:41:29;;;;;;;9.67;5.97;;;13.70;99.90;;;;;;5071120;28;20298;-61
2022/03/16 11:44:01;;;;;;;8.68;7.10;;;13.90;99.90;;;;;;5069705;28;20414;-60
2022/03/16 11:46:31;;;;;;;7.70;6.33;;;14.10;99.90;;;;;;5070675;28;20313;-60
2022/03/16 11:49:02;;;;;;;8.97;6.40;;;14.20;99.90;;;;;;5070925;28;20208;-63
2022/03/16 11:51:28;;;;;;;9.33;6.67;;;14.20;99.90;;;;;;5070644;28;20205;-64
2022/03/16 11:54:05;;;;;;;8.10;6.00;;;14.20;99.90;;;;;;5071577;28;20229;-64
2022/03/16 11:56:52;;;;;;;8.73;6.00;;;14.10;99.90;;;;;;5071064;28;20201;-64
2022/03/16 11:59:31;;;;;;;8.13;6.03;;;14.00;99.90;;;;;;5071086;28;20204;-63
2022/03/16 12:02:17;;;;;;;7.67;5.50;;;14.00;99.90;;;;;;5070982;28;20319;-64
2022/03/16 12:04:46;;;;;;;7.57;5.90;;;14.10;99.90;;;;;;5070737;28;20235;-64
2022/03/16 12:07:16;;;;;;;7.60;6.17;;;14.30;99.90;;;;;;5070704;28;20653;-64
2022/03/16 12:09:45;;;;;;;9.47;6.23;;;14.40;99.90;;;;;;5070519;28;20216;-63
2022/03/16 12:15:15;;;;;;;6.97;5.57;;;14.50;99.90;;;;;;5071321;28;20227;-63
2022/03/16 12:18:31;;;;;;;7.03;5.70;;;14.60;99.90;;;;;;5070784;28;20205;-61
2022/03/16 12:21:06;;;;;;;7.53;5.73;;;14.60;99.90;;;;;;5070495;28;20201;-63
2022/03/16 12:23:58;;;;;;;9.40;6.17;;;14.50;99.90;;;;;;5070417;28;20662;-59
2022/03/16 12:26:27;;;;;;;8.30;6.20;;;14.40;99.90;;;;;;5070720;28;20221;-63
2022/03/16 12:29:05;;;;;;;7.23;5.90;;;14.30;99.90;;;;;;5071009;28;20204;-63
2022/03/16 12:31:34;;;;;;;6.17;4.93;;;14.30;99.90;;;;;;5074994;28;20204;-64
2022/03/16 12:34:03;;;;;;;7.20;5.63;;;14.40;99.90;;;;;;5074926;28;20229;-64
2022/03/16 12:36:32;;;;;;;8.83;5.87;;;14.60;99.90;;;;;;5073775;28;20663;-65
2022/03/16 12:39:00;;;;;;;7.40;5.10;;;14.60;99.90;;;;;;5075055;28;20219;-64
2022/03/16 12:44:13;;;;;;;8.77;6.30;;;14.80;99.90;;;;;;5075786;28;20266;-64
2022/03/16 12:46:48;;;;;;;8.93;6.17;;;14.90;99.90;;;;;;5074244;28;20635;-63
2022/03/16 12:49:19;;;;;;;8.10;6.07;;;14.90;99.90;;;;;;5073818;28;20245;-63
2022/03/16 12:51:46;;;;;;;;;;;14.90;99.90;;;;;;5074055;28;20060;-63
2022/03/16 12:54:14;;;;;;;10.05;7.53;;;15.00;99.90;;;;;;5072518;28;20506;-64
2022/03/16 12:56:43;;;;;;;8.63;7.00;;;15.10;99.90;;;;;;5073818;28;20254;-62
2022/03/16 12:59:11;;;;;;;8.27;6.73;;;15.20;99.90;;;;;;5073622;28;20300;-62
2022/03/16 13:01:39;;;;;;;8.50;6.67;;;15.50;99.90;;;;;;5073294;28;20208;-64
2022/03/16 13:04:07;;;;;;;8.50;5.67;;;15.60;99.90;;;;;;5073965;28;20312;-63
2022/03/16 13:06:36;;;;;;;7.47;5.30;;;15.40;99.90;;;;;;5073116;28;20604;-62
2022/03/16 13:09:05;;;;;;;8.20;4.93;;;15.40;99.90;;;;;;5073774;28;20205;-63
2022/03/16 13:11:32;;;;;;;7.17;5.10;;;15.30;99.90;;;;;;5073133;28;20208;-63
2022/03/16 13:14:06;;;;;;;6.60;5.07;;;14.90;99.90;;;;;;5073674;28;20274;-63
2022/03/16 13:16:38;;;;;;;10.27;5.37;;;14.90;99.90;;;;;;5073405;28;20258;-63
2022/03/16 13:19:06;;;;;;;8.97;5.70;;;14.60;99.90;;;;;;5073011;28;20861;-63
2022/03/16 13:21:34;;;;;;;6.67;4.70;;;14.70;99.90;;;;;;5073439;28;20208;-63